Time;durP1;ratioP1;P1;durP2;ratioP2;P2;SDS_P1;SDS_P2;PMS_P1;PMS_P2;Temp;Humidity;BMP_temperature;BMP_pressure;BME280_temperature;BME280_humidity;BME280_pressure;Samples;Min_cycle;Max_cycle;Signal;HPM_P1;HPM_P2
2024/01/19 00:00:49;;;;;;;;;30.00;28.00;;;;;6.39;100.00;97632.88;5883105;29;96478;-57
2024/01/19 00:03:52;;;;;;;;;31.00;25.80;;;;;6.40;100.00;97636.38;5883435;29;96470;-57
2024/01/19 00:06:55;;;;;;;;;31.60;27.00;;;;;6.43;100.00;97642.09;5888309;29;96557;-57
2024/01/19 00:10:00;;;;;;;;;33.40;29.00;;;;;6.44;100.00;97648.25;5883955;29;96733;-57
2024/01/19 00:13:03;;;;;;;;;30.40;28.40;;;;;6.45;100.00;97658.72;5883160;29;97370;-57
2024/01/19 00:16:06;;;;;;;;;30.60;25.80;;;;;6.41;100.00;97660.22;5897012;29;96402;-57
2024/01/19 00:19:10;;;;;;;;;34.20;30.20;;;;;6.43;100.00;97676.06;5883324;29;96351;-57
2024/01/19 00:22:13;;;;;;;;;32.00;28.40;;;;;6.43;100.00;97684.91;5887769;29;96905;-57
2024/01/19 00:25:18;;;;;;;;;33.25;29.50;;;;;6.42;100.00;97690.47;5912524;29;96280;-56
2024/01/19 00:28:21;;;;;;;;;31.20;29.60;;;;;6.35;100.00;97697.78;5911064;29;96811;-56
2024/01/19 00:31:26;;;;;;;;;29.00;26.00;;;;;6.37;100.00;97703.72;5915647;29;96321;-55
2024/01/19 00:34:29;;;;;;;;;32.20;28.20;;;;;6.29;100.00;97722.75;5912388;29;96300;-56
2024/01/19 00:37:33;;;;;;;;;37.20;32.00;;;;;6.29;100.00;97739.66;5911303;29;96938;-56
2024/01/19 00:40:37;;;;;;;;;33.00;30.50;;;;;6.29;100.00;97736.97;5911082;29;96387;-56
2024/01/19 00:43:40;;;;;;;;;33.60;29.00;;;;;6.31;100.00;97747.44;5911609;29;96301;-56
2024/01/19 00:46:43;;;;;;;;;36.00;30.00;;;;;6.29;100.00;97752.22;5912710;29;96883;-56
2024/01/19 00:49:46;;;;;;;;;35.00;30.75;;;;;6.19;100.00;97741.19;5918673;29;96301;-56
2024/01/19 00:52:49;;;;;;;;;31.60;28.00;;;;;6.15;100.00;97750.72;5912284;29;96391;-57
2024/01/19 00:55:54;;;;;;;;;30.40;28.40;;;;;6.31;100.00;97763.50;5912294;29;96468;-57
2024/01/19 00:58:57;;;;;;;;;29.20;27.20;;;;;6.27;100.00;97763.13;5915155;29;96362;-55
2024/01/19 01:02:00;;;;;;;;;26.40;24.00;;;;;6.30;100.00;97761.88;5895679;29;96665;-56
2024/01/19 01:05:03;;;;;;;;;30.00;27.60;;;;;6.31;100.00;97771.50;5912563;29;96651;-56
2024/01/19 01:08:06;;;;;;;;;30.60;27.00;;;;;6.34;100.00;97774.59;5911034;29;96262;-55
2024/01/19 01:11:11;;;;;;;;;30.33;26.00;;;;;6.33;100.00;97767.59;5913189;29;96310;-55
2024/01/19 01:14:15;;;;;;;;;30.00;27.50;;;;;6.34;100.00;97769.25;5921352;29;96362;-57
2024/01/19 01:17:18;;;;;;;;;34.50;29.50;;;;;6.35;100.00;97764.72;5911961;29;96887;-55
2024/01/19 01:20:21;;;;;;;;;35.00;30.60;;;;;6.33;100.00;97775.63;5919012;29;96843;-56
2024/01/19 01:23:25;;;;;;;;;31.40;29.00;;;;;6.28;100.00;97778.16;5915480;29;96911;-55
2024/01/19 01:26:29;;;;;;;;;31.00;30.00;;;;;6.20;100.00;97782.97;5918033;29;96278;-56
2024/01/19 01:29:32;;;;;;;;;32.20;29.40;;;;;6.12;100.00;97788.59;5915967;29;96382;-56
2024/01/19 01:32:35;;;;;;;;;29.60;28.00;;;;;6.08;100.00;97804.28;5929369;29;96396;-55
2024/01/19 01:35:39;;;;;;;;;31.40;29.00;;;;;5.98;100.00;97820.00;5914875;29;96776;-56
2024/01/19 01:38:42;;;;;;;;;29.60;26.60;;;;;5.93;100.00;97815.31;5926629;29;96289;-56
2024/01/19 01:41:49;;;;;;;;;29.80;28.00;;;;;5.92;100.00;97828.88;5919405;29;96383;-55
2024/01/19 01:44:52;;;;;;;;;29.60;26.60;;;;;5.91;100.00;97829.94;5933997;29;96284;-56
2024/01/19 01:47:55;;;;;;;;;32.80;29.00;;;;;5.79;100.00;97829.78;5915089;29;96349;-55
2024/01/19 01:50:59;;;;;;;;;36.75;30.00;;;;;5.74;100.00;97813.56;5913390;29;96933;-56
2024/01/19 01:54:02;;;;;;;;;33.00;30.00;;;;;5.84;100.00;97829.13;5914717;29;98085;-56
2024/01/19 01:57:07;;;;;;;;;39.60;31.80;;;;;5.79;100.00;97828.97;5913669;29;96841;-55
2024/01/19 02:00:13;;;;;;;;;37.60;32.00;;;;;5.79;100.00;97837.81;5914125;29;96298;-56
2024/01/19 02:03:17;;;;;;;;;36.60;32.60;;;;;5.81;100.00;97832.25;5904475;29;96175;-56
2024/01/19 02:06:20;;;;;;;;;43.25;34.75;;;;;5.83;100.00;97833.66;5913082;29;96374;-56
2024/01/19 02:09:23;;;;;;;;;43.00;35.00;;;;;5.84;100.00;97835.31;5914281;29;96291;-56
2024/01/19 02:12:28;;;;;;;;;42.00;35.00;;;;;5.88;100.00;97841.88;5914104;29;99119;-55
2024/01/19 02:15:34;;;;;;;;;43.80;35.20;;;;;5.87;100.00;97848.25;5915064;29;97031;-56
2024/01/19 02:18:37;;;;;;;;;45.00;35.60;;;;;5.85;100.00;97841.47;5925216;29;96904;-56
2024/01/19 02:21:40;;;;;;;;;45.50;36.00;;;;;5.78;100.00;97846.84;5917551;29;96506;-55
2024/01/19 02:24:45;;;;;;;;;47.00;38.00;;;;;5.76;100.00;97861.50;5924207;29;96303;-56
2024/01/19 02:27:48;;;;;;;;;43.00;35.50;;;;;5.73;100.00;97861.91;5914623;29;96419;-55
2024/01/19 02:30:51;;;;;;;;;41.00;34.00;;;;;5.76;100.00;97869.53;5914726;29;96892;-56
2024/01/19 02:33:54;;;;;;;;;43.60;34.00;;;;;5.75;100.00;97867.88;5916933;29;96457;-56
2024/01/19 02:36:57;;;;;;;;;38.40;33.00;;;;;5.76;100.00;97862.31;5918560;29;96226;-55
2024/01/19 02:40:04;;;;;;;;;40.60;34.00;;;;;5.78;100.00;97864.75;5917666;29;97042;-55
2024/01/19 02:43:08;;;;;;;;;37.50;32.00;;;;;5.74;100.00;97863.56;5927253;29;96912;-56
2024/01/19 02:46:15;;;;;;;;;42.40;34.60;;;;;5.78;100.00;97870.09;5912416;29;96361;-56
2024/01/19 02:49:18;;;;;;;;;35.00;32.00;;;;;5.70;100.00;97848.97;5914256;29;96245;-56
2024/01/19 02:52:21;;;;;;;;;36.00;32.00;;;;;5.85;100.00;97874.41;5929064;29;96404;-56
2024/01/19 02:55:26;;;;;;;;;33.00;30.00;;;;;5.84;100.00;97879.94;5913476;29;96268;-56
2024/01/19 02:58:29;;;;;;;;;34.00;30.00;;;;;5.82;100.00;97898.88;5921281;29;96508;-56
2024/01/19 03:01:32;;;;;;;;;31.60;29.00;;;;;5.83;100.00;97903.19;5914629;29;96472;-56
2024/01/19 03:04:35;;;;;;;;;41.20;33.00;;;;;5.81;100.00;97909.81;5927864;29;96465;-56
2024/01/19 03:07:38;;;;;;;;;36.80;31.40;;;;;5.78;100.00;97912.91;5924002;29;98460;-56
2024/01/19 03:10:42;;;;;;;;;37.00;31.50;;;;;5.80;100.00;97929.56;5914585;29;96309;-56
2024/01/19 03:13:46;;;;;;;;;33.80;29.40;;;;;5.80;100.00;97921.53;5913483;29;96273;-56
2024/01/19 03:16:49;;;;;;;;;37.00;32.00;;;;;5.84;100.00;97931.59;5923936;29;96368;-56
2024/01/19 03:19:52;;;;;;;;;35.50;30.75;;;;;5.84;100.00;97949.50;5920011;29;96478;-56
2024/01/19 03:22:56;;;;;;;;;38.00;32.75;;;;;5.84;100.00;97947.63;5917882;29;96303;-56
2024/01/19 03:26:00;;;;;;;;;36.00;31.50;;;;;5.87;100.00;97943.72;5908842;29;96330;-56
2024/01/19 03:29:03;;;;;;;;;36.80;31.40;;;;;5.87;100.00;97951.75;5910011;29;96973;-56
2024/01/19 03:32:07;;;;;;;;;36.60;30.80;;;;;5.86;100.00;97958.13;5910020;29;96781;-56
2024/01/19 03:35:10;;;;;;;;;33.60;30.00;;;;;5.85;100.00;97967.19;5917286;29;96380;-56
2024/01/19 03:38:13;;;;;;;;;41.00;33.00;;;;;5.80;100.00;97969.69;5910042;29;96363;-56
2024/01/19 03:41:17;;;;;;;;;38.00;31.20;;;;;5.80;100.00;97961.66;5911378;29;96565;-56
2024/01/19 03:44:21;;;;;;;;;34.00;31.00;;;;;5.77;100.00;97970.09;5924681;29;96284;-56
2024/01/19 03:47:24;;;;;;;;;33.00;30.00;;;;;5.78;100.00;97979.75;5915552;29;96464;-56
2024/01/19 03:50:27;;;;;;;;;38.25;32.00;;;;;5.76;100.00;97974.63;5915211;29;96383;-56
2024/01/19 03:53:30;;;;;;;;;37.60;32.20;;;;;5.78;100.00;97993.13;5911946;29;96857;-56
2024/01/19 03:56:35;;;;;;;;;41.50;32.00;;;;;5.51;100.00;97944.31;5917605;29;96350;-55
2024/01/19 03:59:38;;;;;;;;;40.25;32.00;;;;;5.77;100.00;98005.66;5921283;29;98688;-56
2024/01/19 04:02:41;;;;;;;;;38.80;32.80;;;;;5.80;100.00;98021.31;5912716;29;96780;-56
2024/01/19 04:05:44;;;;;;;;;38.80;32.20;;;;;5.81;100.00;98027.50;5915403;29;96753;-56
2024/01/19 04:08:47;;;;;;;;;38.00;32.40;;;;;5.85;100.00;98026.84;5934286;29;96385;-56
2024/01/19 04:11:52;;;;;;;;;31.60;27.20;;;;;5.83;100.00;98036.94;5934840;29;96342;-55
2024/01/19 04:14:55;;;;;;;;;37.60;32.00;;;;;5.83;100.00;98044.94;5911891;29;96891;-55
2024/01/19 04:17:59;;;;;;;;;35.00;30.40;;;;;5.79;100.00;98034.88;5908643;29;96217;-56
2024/01/19 04:21:02;;;;;;;;;39.40;33.00;;;;;5.78;100.00;98039.41;5923292;29;96753;-56
2024/01/19 04:24:06;;;;;;;;;39.40;32.00;;;;;5.74;100.00;98030.19;5911602;29;96269;-56
2024/01/19 04:27:14;;;;;;;;;34.40;31.20;;;;;5.70;100.00;98022.78;5919386;29;96589;-56
2024/01/19 04:30:18;;;;;;;;;36.20;32.00;;;;;5.67;100.00;98026.69;5912911;29;96998;-56
2024/01/19 04:33:21;;;;;;;;;30.20;28.80;;;;;5.64;100.00;98032.47;5912068;29;96748;-56
2024/01/19 04:36:24;;;;;;;;;33.00;29.50;;;;;5.54;100.00;98032.09;5918522;29;96529;-56
2024/01/19 04:39:27;;;;;;;;;29.00;26.00;;;;;5.43;100.00;98049.59;5933119;29;96919;-56
2024/01/19 04:42:32;;;;;;;;;25.25;24.25;;;;;5.37;100.00;98063.81;5912115;29;96408;-55
2024/01/19 04:45:35;;;;;;;;;28.00;25.60;;;;;5.24;100.00;98099.38;5910269;29;96516;-56
2024/01/19 04:48:38;;;;;;;;;27.33;22.33;;;;;5.17;100.00;98109.28;5910740;29;96480;-56
2024/01/19 04:51:41;;;;;;;;;27.60;25.60;;;;;5.10;100.00;98111.09;5933798;29;96775;-56
2024/01/19 04:54:44;;;;;;;;;25.75;21.00;;;;;5.10;100.00;98115.63;5921456;29;96289;-56
2024/01/19 04:57:48;;;;;;;;;23.20;21.20;;;;;5.07;100.00;98105.38;5909986;29;96231;-56
2024/01/19 05:00:51;;;;;;;;;24.40;23.40;;;;;4.94;100.00;98087.47;5909257;29;96971;-56
2024/01/19 05:03:55;;;;;;;;;22.00;19.00;;;;;5.08;100.00;98126.50;5899741;29;97173;-58
2024/01/19 05:06:58;;;;;;;;;22.25;20.00;;;;;5.03;100.00;98133.53;5879552;29;96666;-58
2024/01/19 05:10:01;;;;;;;;;24.60;22.00;;;;;4.92;100.00;98118.91;5885398;29;96647;-58
2024/01/19 05:13:06;;;;;;;;;22.00;20.40;;;;;5.02;100.00;98151.38;5877177;29;96723;-59
2024/01/19 05:16:09;;;;;;;;;27.60;23.40;;;;;5.04;100.00;98152.00;5880440;29;96735;-58
2024/01/19 05:19:12;;;;;;;;;24.00;21.60;;;;;5.05;100.00;98147.47;5881610;29;96387;-58
2024/01/19 05:22:15;;;;;;;;;26.00;23.60;;;;;5.03;100.00;98161.06;5882402;29;96575;-58
2024/01/19 05:25:18;;;;;;;;;27.00;22.25;;;;;4.99;100.00;98167.81;5876310;29;96925;-58
2024/01/19 05:28:23;;;;;;;;;22.00;20.20;;;;;5.03;100.00;98165.56;5884307;29;96291;-58
2024/01/19 05:31:26;;;;;;;;;23.00;21.40;;;;;5.09;100.00;98168.22;5889892;29;97046;-58
2024/01/19 05:34:29;;;;;;;;;19.75;17.25;;;;;5.03;100.00;98171.75;5881187;29;96437;-58
2024/01/19 05:37:33;;;;;;;;;21.00;19.40;;;;;5.03;100.00;98185.09;5885955;29;97068;-58
2024/01/19 05:40:36;;;;;;;;;22.00;19.00;;;;;5.05;100.00;98193.72;5884790;29;96957;-58
2024/01/19 05:43:40;;;;;;;;;24.00;20.00;;;;;5.09;100.00;98199.47;5881920;29;96940;-58
2024/01/19 05:46:43;;;;;;;;;20.50;20.50;;;;;5.09;100.00;98202.13;5884569;29;96548;-58
2024/01/19 05:49:46;;;;;;;;;26.00;21.40;;;;;5.12;100.00;98205.25;5885126;29;96980;-58
2024/01/19 05:52:49;;;;;;;;;26.50;25.50;;;;;5.13;100.00;98208.75;5880828;29;96479;-58
2024/01/19 05:55:53;;;;;;;;;23.60;21.60;;;;;5.13;100.00;98198.84;5882323;29;97039;-58
2024/01/19 05:58:57;;;;;;;;;22.80;20.00;;;;;5.12;100.00;98207.91;5885253;29;96317;-58
2024/01/19 06:02:01;;;;;;;;;21.00;20.00;;;;;5.05;100.00;98207.06;5888419;29;96690;-58
2024/01/19 06:05:05;;;;;;;;;24.40;20.40;;;;;5.03;100.00;98211.00;5884957;29;96793;-58
2024/01/19 06:08:08;;;;;;;;;23.40;21.40;;;;;5.04;100.00;98220.63;5884720;29;96417;-58
2024/01/19 06:11:11;;;;;;;;;25.20;20.60;;;;;5.04;100.00;98229.47;5888431;29;96521;-58
2024/01/19 06:14:16;;;;;;;;;27.75;23.75;;;;;5.06;100.00;98239.97;5871505;29;96314;-56
2024/01/19 06:17:19;;;;;;;;;27.67;24.67;;;;;5.06;100.00;98250.66;5903504;29;96377;-56
2024/01/19 06:20:23;;;;;;;;;27.40;23.00;;;;;5.01;100.00;98250.41;5914412;29;96402;-55
2024/01/19 06:23:26;;;;;;;;;28.50;24.50;;;;;5.06;100.00;98253.31;5915102;29;96292;-56
2024/01/19 06:26:32;;;;;;;;;25.60;23.00;;;;;5.10;100.00;98259.91;5910463;29;96897;-56
2024/01/19 06:29:36;;;;;;;;;22.20;21.80;;;;;5.09;100.00;98268.94;5914925;29;96481;-56
2024/01/19 06:32:40;;;;;;;;;28.40;24.00;;;;;5.00;100.00;98270.13;5914445;29;96959;-55
2024/01/19 06:35:43;;;;;;;;;26.75;24.25;;;;;5.04;100.00;98276.72;5915053;29;96326;-56
2024/01/19 06:38:46;;;;;;;;;29.00;27.00;;;;;5.06;100.00;98272.00;5906253;29;96357;-56
2024/01/19 06:41:49;;;;;;;;;30.80;27.40;;;;;5.08;100.00;98276.13;5913133;29;96682;-56
2024/01/19 06:44:54;;;;;;;;;29.00;27.00;;;;;4.96;100.00;98269.72;5911629;29;96343;-56
2024/01/19 06:47:57;;;;;;;;;30.50;26.00;;;;;4.95;100.00;98277.94;5913465;29;96468;-56
2024/01/19 06:51:00;;;;;;;;;27.00;25.00;;;;;4.95;100.00;98277.94;5913277;29;97220;-56
2024/01/19 06:54:03;;;;;;;;;27.00;23.40;;;;;4.94;100.00;98285.13;5913515;29;96466;-56
2024/01/19 06:57:07;;;;;;;;;30.00;27.00;;;;;4.96;100.00;98288.44;5911502;29;96419;-56
2024/01/19 07:00:12;;;;;;;;;26.00;23.60;;;;;4.88;100.00;98293.94;5912197;29;96363;-56
2024/01/19 07:03:15;;;;;;;;;30.00;25.00;;;;;4.83;100.00;98291.06;5900135;29;96834;-56
2024/01/19 07:06:18;;;;;;;;;26.00;23.00;;;;;4.86;100.00;98293.31;5911155;29;96205;-56
2024/01/19 07:09:22;;;;;;;;;24.80;22.00;;;;;4.86;100.00;98293.31;5911485;29;96329;-56
2024/01/19 07:12:25;;;;;;;;;21.60;20.00;;;;;4.82;100.00;98294.75;5913837;29;96342;-56
2024/01/19 07:15:29;;;;;;;;;20.75;18.00;;;;;4.75;100.00;98291.22;5914062;29;96262;-56
2024/01/19 07:18:32;;;;;;;;;22.00;18.00;;;;;4.77;100.00;98290.00;5913687;29;96281;-55
2024/01/19 07:21:37;;;;;;;;;17.80;16.80;;;;;4.83;100.00;98291.06;5913253;29;96972;-56
2024/01/19 07:24:41;;;;;;;;;18.00;16.00;;;;;4.74;100.00;98277.03;5907475;29;96358;-58
2024/01/19 07:27:44;;;;;;;;;14.00;13.00;;;;;4.87;100.00;98294.16;5884462;29;96424;-59
2024/01/19 07:30:48;;;;;;;;;17.00;15.00;;;;;4.97;100.00;98310.63;5884459;29;96397;-58
2024/01/19 07:33:51;;;;;;;;;18.20;16.20;;;;;5.04;100.00;98304.25;5884553;29;96418;-58
2024/01/19 07:36:55;;;;;;;;;15.80;15.40;;;;;5.09;100.00;98314.34;5884056;29;96671;-58
2024/01/19 07:39:58;;;;;;;;;16.00;14.40;;;;;5.05;100.00;98316.59;5882886;29;96522;-58
2024/01/19 07:43:01;;;;;;;;;18.75;16.75;;;;;5.14;100.00;98314.56;5884486;29;96277;-58
2024/01/19 07:46:07;;;;;;;;;18.40;17.00;;;;;5.13;100.00;98308.41;5883896;29;96385;-58
2024/01/19 07:49:10;;;;;;;;;17.00;14.00;;;;;5.24;100.00;98315.84;5884666;29;96920;-58
2024/01/19 07:52:13;;;;;;;;;14.75;13.00;;;;;5.32;100.00;98317.53;5884420;29;96364;-58
2024/01/19 07:55:16;;;;;;;;;17.00;16.00;;;;;5.32;100.00;98322.03;5884206;29;96310;-58
2024/01/19 07:58:19;;;;;;;;;17.00;17.00;;;;;5.37;100.00;98322.25;5882756;29;98846;-58
2024/01/19 08:01:24;;;;;;;;;15.00;14.00;;;;;5.40;100.00;98327.19;5884292;29;96323;-58
2024/01/19 08:04:27;;;;;;;;;15.00;12.00;;;;;5.44;100.00;98334.59;5883751;29;96437;-58
2024/01/19 08:07:30;;;;;;;;;15.00;13.25;;;;;5.59;100.00;98347.78;5883742;29;96411;-58
2024/01/19 08:10:35;;;;;;;;;15.20;13.00;;;;;5.74;100.00;98337.72;5883909;29;96298;-58
2024/01/19 08:13:39;;;;;;;;;14.20;13.20;;;;;5.64;100.00;98306.03;5882018;29;98476;-58
2024/01/19 08:16:44;;;;;;;;;13.00;11.60;;;;;5.82;100.00;98340.19;5883746;29;97524;-59
2024/01/19 08:19:47;;;;;;;;;11.00;11.00;;;;;5.89;100.00;98345.59;5883274;29;96434;-58
2024/01/19 08:22:52;;;;;;;;;14.00;13.00;;;;;5.93;100.00;98349.50;5881881;29;99311;-58
2024/01/19 08:25:56;;;;;;;;;13.40;12.40;;;;;5.94;100.00;98351.97;5882080;29;96518;-58
2024/01/19 08:29:01;;;;;;;;;16.40;14.00;;;;;5.95;100.00;98363.50;5883397;29;96325;-58
2024/01/19 08:32:05;;;;;;;;;13.00;12.00;;;;;5.86;100.00;98349.50;5883538;29;96729;-58
2024/01/19 08:35:09;;;;;;;;;14.60;13.00;;;;;5.90;100.00;98369.47;5881904;29;96417;-58
2024/01/19 08:38:13;;;;;;;;;14.00;13.00;;;;;5.99;100.00;98386.97;5866184;29;96242;-58
2024/01/19 08:41:16;;;;;;;;;14.00;14.00;;;;;6.05;100.00;98388.00;5871541;29;96393;-58
2024/01/19 08:44:19;;;;;;;;;16.60;15.00;;;;;6.13;100.00;98409.22;5868388;29;96270;-57
2024/01/19 08:47:24;;;;;;;;;13.20;13.20;;;;;6.20;100.00;98426.09;5863238;29;96288;-58
2024/01/19 08:50:28;;;;;;;;;15.60;14.40;;;;;6.30;100.00;98445.28;5882247;29;96641;-58
2024/01/19 08:53:31;;;;;;;;;16.00;15.00;;;;;6.33;100.00;98455.56;5883045;29;97532;-58
2024/01/19 08:56:35;;;;;;;;;18.00;16.50;;;;;6.32;100.00;98467.28;5881039;29;98590;-58
2024/01/19 08:59:47;;;;;;;;;18.00;14.60;;;;;6.25;100.00;98473.69;5883093;29;96503;-58
2024/01/19 09:02:52;;;;;;;;;15.80;15.80;;;;;6.29;100.00;98486.44;5880790;29;97636;-58
2024/01/19 09:06:06;;;;;;;;;18.60;16.60;;;;;6.34;100.00;98489.34;5882840;29;96228;-58
2024/01/19 09:09:09;;;;;;;;;19.00;17.75;;;;;6.38;100.00;98493.25;5882701;29;96825;-58
2024/01/19 09:12:12;;;;;;;;;21.40;19.40;;;;;6.47;100.00;98504.56;5882954;29;96397;-58
2024/01/19 09:15:16;;;;;;;;;18.60;17.40;;;;;6.52;100.00;98512.81;5882487;29;96317;-58
2024/01/19 09:18:21;;;;;;;;;18.00;18.00;;;;;6.37;100.00;98512.19;5881048;29;96760;-58
2024/01/19 09:21:24;;;;;;;;;20.00;17.75;;;;;6.45;100.00;98510.13;5882683;29;97796;-58
2024/01/19 09:24:28;;;;;;;;;20.40;19.60;;;;;6.37;100.00;98518.38;5882646;29;96296;-58
2024/01/19 09:27:31;;;;;;;;;20.00;19.00;;;;;6.17;100.00;98506.78;5882249;29;96316;-59
2024/01/19 09:30:34;;;;;;;;;21.67;20.00;;;;;6.09;100.00;98523.06;5881926;29;97031;-58
2024/01/19 09:33:39;;;;;;;;;19.40;18.40;;;;;5.73;100.00;98519.78;5884316;29;97622;-58
2024/01/19 09:36:43;;;;;;;;;21.75;18.50;;;;;5.70;100.00;98525.56;5885828;29;96418;-58
2024/01/19 09:39:46;;;;;;;;;21.40;19.00;;;;;5.76;100.00;98536.28;5885928;29;96274;-58
2024/01/19 09:42:54;;;;;;;;;19.00;18.40;;;;;5.81;100.00;98551.75;5886232;29;96381;-58
2024/01/19 09:46:03;;;;;;;;;19.00;18.00;;;;;5.93;100.00;98553.66;5886836;29;96308;-58
2024/01/19 09:49:16;;;;;;;;;21.00;18.40;;;;;5.99;100.00;98552.88;5883883;29;96479;-58
2024/01/19 09:52:28;;;;;;;;;19.00;18.00;;;;;5.85;100.00;98535.09;5882708;29;96597;-58
2024/01/19 09:55:31;;;;;;;;;17.00;16.00;;;;;5.91;100.00;98563.72;5884409;29;96903;-58
2024/01/19 09:58:34;;;;;;;;;21.50;19.50;;;;;5.91;100.00;98555.69;5883790;29;96464;-57
2024/01/19 10:01:37;;;;;;;;;21.60;20.00;;;;;5.79;100.00;98557.28;5883787;29;96538;-58
2024/01/19 10:04:42;;;;;;;;;20.60;19.00;;;;;5.84;100.00;98560.19;5883869;29;99260;-58
2024/01/19 10:07:46;;;;;;;;;24.00;22.00;;;;;5.80;100.00;98540.22;5885011;29;96264;-58
2024/01/19 10:10:51;;;;;;;;;20.00;18.60;;;;;6.07;100.00;98552.69;5885576;29;96547;-58
2024/01/19 10:13:54;;;;;;;;;27.75;24.25;;;;;6.14;100.00;98550.03;5885697;29;97550;-58
2024/01/19 10:16:59;;;;;;;;;23.40;21.60;;;;;6.40;100.00;98554.63;5885609;29;96476;-58
2024/01/19 10:20:05;;;;;;;;;25.80;21.80;;;;;6.50;100.00;98553.19;5885597;29;98179;-58
2024/01/19 10:23:22;;;;;;;;;28.00;26.00;;;;;6.81;100.00;98546.41;5885868;29;97109;-59
2024/01/19 10:26:27;;;;;;;;;25.25;23.50;;;;;6.87;100.00;98559.00;5885672;29;96365;-59
2024/01/19 10:29:31;;;;;;;;;23.60;23.00;;;;;7.22;100.00;98557.75;5885519;29;97595;-58
2024/01/19 10:32:35;;;;;;;;;28.00;23.00;;;;;7.81;100.00;98567.53;5885527;29;97036;-58
2024/01/19 10:35:41;;;;;;;;;28.00;23.00;;;;;8.32;100.00;98559.47;5885442;29;96563;-58
2024/01/19 10:38:45;;;;;;;;;22.40;20.40;;;;;8.48;98.45;98558.13;5882839;29;98402;-58
2024/01/19 10:41:48;;;;;;;;;24.60;21.60;;;;;8.52;98.03;98556.66;5885238;29;96426;-58
2024/01/19 10:44:52;;;;;;;;;24.00;22.00;;;;;8.50;98.80;98561.44;5883315;29;96503;-58
2024/01/19 10:47:57;;;;;;;;;29.60;25.00;;;;;8.60;100.00;98546.47;5884965;29;96835;-58
2024/01/19 10:51:03;;;;;;;;;26.40;22.40;;;;;8.67;98.46;98557.19;5875205;29;96964;-58
2024/01/19 10:54:07;;;;;;;;;25.80;23.00;;;;;8.95;97.14;98564.81;5883594;29;96285;-58
2024/01/19 10:57:11;;;;;;;;;29.40;27.40;;;;;9.30;95.94;98554.38;5895376;29;96369;-54
2024/01/19 11:00:23;;;;;;;;;28.00;24.75;;;;;10.02;93.08;98547.41;5900704;29;96331;-54
2024/01/19 11:03:26;;;;;;;;;28.00;25.00;;;;;10.31;91.67;98549.31;5900073;29;96798;-54
2024/01/19 11:06:31;;;;;;;;;28.67;25.00;;;;;10.44;88.16;98557.22;5900783;29;96393;-53
2024/01/19 11:09:35;;;;;;;;;25.00;23.00;;;;;10.38;88.45;98567.03;5900864;29;96559;-54
2024/01/19 11:12:47;;;;;;;;;25.00;22.00;;;;;9.93;88.29;98569.22;5899997;29;96363;-54
2024/01/19 11:15:57;;;;;;;;;23.60;20.60;;;;;9.64;90.64;98580.72;5899965;29;96755;-54
2024/01/19 11:19:01;;;;;;;;;26.00;24.00;;;;;9.45;92.31;98582.59;5900363;29;96221;-53
2024/01/19 11:22:06;;;;;;;;;28.40;25.40;;;;;9.34;91.77;98594.06;5888605;29;96447;-55
2024/01/19 11:25:14;;;;;;;;;20.75;18.75;;;;;9.04;92.06;98601.97;5885337;29;96866;-55
2024/01/19 11:28:23;;;;;;;;;21.60;19.60;;;;;8.60;92.81;98597.50;5890934;29;96271;-54
2024/01/19 11:31:29;;;;;;;;;24.00;20.60;;;;;8.22;94.70;98588.59;5898281;29;96334;-54
2024/01/19 11:34:48;;;;;;;;;21.60;20.60;;;;;8.00;97.39;98587.25;5899934;29;96388;-54
2024/01/19 11:37:53;;;;;;;;;22.40;20.00;;;;;7.96;97.43;98575.31;5898493;29;96417;-53
2024/01/19 11:40:56;;;;;;;;;25.00;22.40;;;;;7.58;97.21;98585.94;5898257;29;96310;-54
2024/01/19 11:44:01;;;;;;;;;22.50;20.00;;;;;7.61;98.90;98589.03;5898193;29;96438;-54
2024/01/19 11:47:04;;;;;;;;;25.50;22.50;;;;;7.58;100.00;98592.13;5897551;29;96734;-54
2024/01/19 11:50:09;;;;;;;;;26.00;23.80;;;;;7.47;99.24;98575.88;5899289;29;96314;-54
2024/01/19 11:53:14;;;;;;;;;22.00;21.50;;;;;7.74;99.94;98582.81;5898883;29;96435;-54
2024/01/19 11:56:21;;;;;;;;;23.00;22.00;;;;;7.79;98.52;98577.63;5898787;29;96510;-53
2024/01/19 11:59:25;;;;;;;;;25.60;22.20;;;;;7.73;98.04;98581.16;5898630;29;97001;-54
2024/01/19 12:02:30;;;;;;;;;22.40;20.00;;;;;7.77;97.60;98582.41;5898859;29;96297;-53
2024/01/19 12:05:37;;;;;;;;;23.00;21.00;;;;;7.60;97.85;98581.19;5897607;29;96297;-58
2024/01/19 12:08:41;;;;;;;;;23.25;20.25;;;;;7.56;99.46;98571.91;5882166;29;96844;-58
2024/01/19 12:11:46;;;;;;;;;23.20;22.00;;;;;7.48;99.68;98569.47;5873857;29;96914;-58
2024/01/19 12:14:51;;;;;;;;;27.00;24.00;;;;;7.59;100.00;98580.38;5881916;29;96280;-58
2024/01/19 12:17:56;;;;;;;;;27.60;25.00;;;;;7.54;100.00;98582.84;5882436;29;97888;-58
2024/01/19 12:21:00;;;;;;;;;29.80;27.40;;;;;7.29;100.00;98587.22;5876922;29;96265;-58
2024/01/19 12:24:05;;;;;;;;;26.00;23.40;;;;;7.03;100.00;98593.44;5880524;29;96380;-58
2024/01/19 12:27:08;;;;;;;;;28.40;25.40;;;;;6.71;100.00;98596.91;5880561;29;96910;-58
2024/01/19 12:30:12;;;;;;;;;27.00;24.00;;;;;6.59;100.00;98602.06;5882388;29;96610;-58
2024/01/19 12:33:17;;;;;;;;;29.00;26.00;;;;;6.53;100.00;98608.22;5878390;29;97671;-58
2024/01/19 12:36:24;;;;;;;;;28.00;25.50;;;;;6.46;100.00;98613.53;5881202;29;96518;-58
2024/01/19 12:39:29;;;;;;;;;34.00;28.00;;;;;6.42;100.00;98614.97;5882708;29;96572;-58
2024/01/19 12:42:36;;;;;;;;;33.00;29.60;;;;;6.44;100.00;98615.63;5881835;29;96418;-58
2024/01/19 12:45:39;;;;;;;;;30.80;28.80;;;;;6.37;100.00;98632.66;5883077;29;96643;-58
2024/01/19 12:48:57;;;;;;;;;34.00;30.00;;;;;6.28;100.00;98637.38;5881284;29;97479;-58
2024/01/19 12:52:00;;;;;;;;;34.75;30.00;;;;;6.21;100.00;98649.06;5882362;29;96306;-58
2024/01/19 12:55:06;;;;;;;;;30.00;27.00;;;;;6.25;100.00;98653.84;5880767;29;96721;-58
2024/01/19 12:58:09;;;;;;;;;32.50;29.50;;;;;6.35;100.00;98648.13;5876595;29;98512;-58
2024/01/19 13:01:13;;;;;;;;;34.00;30.00;;;;;6.33;100.00;98648.31;5878435;29;96527;-58
2024/01/19 13:04:17;;;;;;;;;36.00;28.20;;;;;6.31;100.00;98647.69;5882314;29;96372;-58
2024/01/19 13:07:23;;;;;;;;;34.00;31.00;;;;;6.42;100.00;98649.78;5871309;29;96502;-58
2024/01/19 13:10:27;;;;;;;;;33.00;30.00;;;;;6.40;100.00;98653.72;5886494;29;96559;-58
2024/01/19 13:13:30;;;;;;;;;33.00;29.60;;;;;6.24;100.00;98659.41;5886156;29;96516;-58
2024/01/19 13:16:50;;;;;;;;;35.60;30.00;;;;;6.29;100.00;98660.44;5887403;29;96373;-58
2024/01/19 13:19:53;;;;;;;;;32.80;29.00;;;;;6.17;100.00;98661.19;5879950;29;98545;-58
2024/01/19 13:22:56;;;;;;;;;29.40;27.40;;;;;5.85;100.00;98668.03;5878039;29;96487;-58
2024/01/19 13:26:01;;;;;;;;;32.60;30.00;;;;;5.58;100.00;98675.84;5884005;29;96396;-58
2024/01/19 13:29:04;;;;;;;;;30.40;28.00;;;;;5.50;100.00;98680.53;5886011;29;96339;-58
2024/01/19 13:32:07;;;;;;;;;32.00;30.00;;;;;5.27;100.00;98658.56;5878992;29;96278;-58
2024/01/19 13:35:11;;;;;;;;;36.50;31.00;;;;;5.48;100.00;98682.56;5880749;29;96642;-58
2024/01/19 13:38:15;;;;;;;;;32.40;29.00;;;;;5.26;100.00;98678.28;5883511;29;96870;-58
2024/01/19 13:41:21;;;;;;;;;31.50;28.00;;;;;5.15;100.00;98683.13;5881444;29;96878;-58
2024/01/19 13:44:25;;;;;;;;;31.00;26.80;;;;;4.93;100.00;98661.97;5883638;29;96431;-58
2024/01/19 13:47:29;;;;;;;;;30.00;28.00;;;;;4.97;100.00;98676.59;5869339;29;97374;-58
2024/01/19 13:50:32;;;;;;;;;35.60;29.00;;;;;4.94;100.00;98684.97;5893128;29;97026;-58
2024/01/19 13:53:35;;;;;;;;;28.40;25.80;;;;;4.95;100.00;98689.28;5882866;29;96822;-58
2024/01/19 13:56:39;;;;;;;;;28.80;26.00;;;;;4.99;100.00;98691.41;5885949;29;96444;-58
2024/01/19 13:59:43;;;;;;;;;29.00;27.00;;;;;4.90;100.00;98686.38;5885295;29;96618;-58
2024/01/19 14:02:46;;;;;;;;;31.75;29.25;;;;;4.94;100.00;98690.31;5872717;29;96315;-58
2024/01/19 14:05:50;;;;;;;;;29.00;28.00;;;;;4.89;100.00;98695.44;5882742;29;96351;-58